Latest Weather Observations for Hindmarsh Island

IDS60801

Issued at 9:02 am CDT Wednesday 4 March 2015 (issued every 30 minutes, with the page automatically refreshed every 10 minutes)

About weather observations | Map of weather stations | Latest weather observations for SA | Other Formats
Station Details ID: 023894 Name: HINDMARSH ISLAND AWS Lat: -35.52 Lon: 138.82 Height: 11.0 m
Data from the previous 72 hours. | See also: Recent months at Hindmarsh Island
Date/Time
CDT
Temp
°C
App
Temp
°C
Dew
Point
Rel
Hum
%
Delta-T
°C
Wind Press
QNH
hPa
Press
MSL
hPa
Rain
since 9 am
mm
Dir
 
Spd
km/h
Gust
km/h
Spd
kts
Gust
kts
04/09:00am 17.8 14.2 9.9 60 4.2 W 19 24 10 13 1018.6 - 0.0
04/08:30am 16.6 14.2 10.0 65 3.5 WNW 13 17 7 9 1018.6 - 0.0
04/08:00am 15.3 12.8 9.7 69 2.9 WNW 13 15 7 8 1018.3 - 0.0
04/07:30am 15.1 13.0 9.7 70 2.8 WNW 11 13 6 7 1018.0 - 0.0
04/07:00am 16.9 14.4 9.8 63 3.7 WSW 13 19 7 10 1017.6 - 0.0
04/06:30am 16.9 13.0 9.3 61 4.0 SW 20 26 11 14 1017.4 - 0.0
04/06:00am 16.6 12.7 9.5 63 3.7 SW 20 26 11 14 1017.5 1017.4 0.0
04/05:30am 16.8 13.1 10.0 64 3.6 SSW 20 30 11 16 1017.2 - 0.0
04/05:00am 16.8 12.6 9.7 63 3.7 SSW 22 30 12 16 1017.0 - 0.0
04/04:30am 16.8 13.2 10.0 64 3.6 SSW 19 20 10 11 1017.2 - 0.0
04/04:00am 16.9 13.1 9.8 63 3.7 SSW 20 26 11 14 1017.2 - 0.0
04/03:30am 16.9 13.2 10.3 65 3.5 S 20 24 11 13 1017.5 - 0.0
04/03:00am 17.0 12.5 10.1 64 3.6 SSW 24 32 13 17 1017.8 1017.7 0.0
04/02:30am 17.2 12.1 10.6 65 3.5 SSW 28 35 15 19 1018.3 - 0.0
04/02:00am 17.3 13.0 10.7 65 3.5 S 24 30 13 16 1018.4 - 0.0
04/01:30am 17.2 12.9 10.8 66 3.4 S 24 32 13 17 1018.6 - 0.0
04/01:00am 17.1 12.8 10.9 67 3.3 SSW 24 30 13 16 1018.7 - 0.0
04/12:30am 17.5 13.6 12.0 70 3.0 S 24 32 13 17 1018.8 - 0.0
04/12:00am 17.2 12.9 10.8 66 3.4 SSW 24 30 13 16 1019.0 1018.9 0.0
 
Date/Time
CDT
Temp
°C
App
Temp
°C
Dew
Point
Rel
Hum
%
Delta-T
°C
Wind Press
QNH
hPa
Press
MSL
hPa
Rain
since 9 am
mm
Dir
 
Spd
km/h
Gust
km/h
Spd
kts
Gust
kts
03/11:30pm 17.2 12.6 11.0 67 3.3 SSW 26 32 14 17 1019.0 - 0.0
03/11:00pm 17.4 13.0 11.7 69 3.1 S 26 33 14 18 1019.0 - 0.0
03/10:30pm 17.4 13.5 12.1 71 2.9 S 24 28 13 15 1019.1 - 0.0
03/10:00pm 17.6 13.4 12.3 71 2.9 S 26 32 14 17 1019.2 - 0.0
03/09:30pm 17.5 13.2 12.0 70 3.0 S 26 32 14 17 1019.1 - 0.0
03/09:00pm 17.5 14.0 12.2 71 2.9 S 22 26 12 14 1018.9 1018.8 0.0
03/08:30pm 17.6 13.7 12.1 70 3.0 S 24 30 13 16 1018.5 - 0.0
03/08:00pm 17.5 13.9 11.8 69 3.1 S 22 28 12 15 1018.4 - 0.0
03/07:30pm 17.8 13.4 11.8 68 3.3 S 26 30 14 16 1017.9 - 0.0
03/07:00pm 18.4 14.2 12.4 68 3.3 S 26 32 14 17 1017.6 - 0.0
03/06:30pm 18.7 14.4 12.0 65 3.7 S 26 32 14 17 1017.5 - 0.0
03/06:00pm 19.3 15.2 12.6 65 3.8 S 26 32 14 17 1017.4 1017.3 0.0
03/05:30pm 19.3 14.9 11.8 62 4.1 S 26 30 14 16 1017.5 - 0.0
03/05:00pm 19.5 15.4 11.3 59 4.5 S 24 30 13 16 1017.5 - 0.0
03/04:30pm 20.2 16.6 11.9 59 4.6 S 22 28 12 15 1017.5 - 0.0
03/04:00pm 20.2 16.1 11.4 57 4.9 S 24 32 13 17 1017.3 - 0.0
03/03:30pm 20.2 16.8 11.4 57 4.9 S 20 26 11 14 1017.8 - 0.0
03/03:00pm 20.4 17.2 11.9 58 4.7 S 20 26 11 14 1018.2 1018.2 0.0
03/02:30pm 19.9 16.1 11.1 57 4.8 S 22 28 12 15 1018.4 - 0.0
03/02:00pm 19.9 16.1 11.1 57 4.8 SSE 22 28 12 15 1018.6 - 0.0
03/01:30pm 20.2 16.5 11.4 57 4.9 SSE 22 30 12 16 1018.8 - 0.0
03/01:00pm 19.9 16.0 10.9 56 4.9 SSE 22 30 12 16 1019.0 - 0.0
03/12:30pm 19.6 15.3 10.6 56 4.9 S 24 30 13 16 1019.3 - 0.0
03/12:00pm 19.5 15.2 10.8 57 4.7 S 24 28 13 15 1019.7 1019.6 0.0
03/11:30am 19.3 15.7 11.8 62 4.1 S 22 28 12 15 1019.8 - 0.0
03/11:00am 19.4 16.0 11.4 60 4.4 SSE 20 30 11 16 1019.7 - 0.0
03/10:30am 18.8 15.1 11.6 63 4.0 SSE 22 28 12 15 1019.6 - 0.0
03/10:00am 19.0 15.6 12.5 66 3.6 SSE 22 28 12 15 1019.3 - 0.0
03/09:30am 17.6 14.0 11.8 69 3.2 SSE 22 26 12 14 1019.1 - 0.0
03/09:05am 17.7 14.1 11.7 68 3.3 SSE 22 - 12 - - 1018.8 0.0
03/09:00am 17.8 14.2 11.8 68 3.3 SSE 22 28 12 15 1018.9 1018.8 0.0
03/08:30am 16.9 13.7 11.8 72 2.8 SSE 20 24 11 13 1018.7 - 0.0
03/08:00am 16.9 13.3 12.0 73 2.7 SSE 22 26 12 14 1018.4 - 0.0
03/07:30am 16.5 12.8 11.6 73 2.7 SSE 22 26 12 14 1017.8 - 0.0
03/07:00am 16.4 12.4 11.8 74 2.5 SE 24 30 13 16 1017.3 - 0.0
03/06:30am 16.5 13.0 12.1 75 2.4 SSE 22 26 12 14 1017.2 - 0.0
03/06:00am 16.4 12.8 11.8 74 2.5 SSE 22 28 12 15 1016.9 1016.8 0.0
03/05:30am 16.4 13.2 12.0 75 2.4 SSE 20 24 11 13 1016.7 - 0.0
03/05:00am 16.6 13.5 12.2 75 2.4 SSE 20 24 11 13 1016.8 - 0.0
03/04:30am 16.8 14.0 12.7 77 2.3 SSE 19 24 10 13 1016.8 - 0.0
03/04:00am 16.7 13.5 12.0 74 2.6 SSE 20 24 11 13 1016.7 - 0.0
03/03:30am 16.7 13.6 12.3 75 2.4 SSE 20 24 11 13 1016.7 - 0.0
03/03:00am 16.8 12.8 11.9 73 2.7 SSE 24 28 13 15 1016.6 1016.5 0.0
03/02:30am 17.3 12.9 13.0 76 2.4 S 28 33 15 18 1016.8 - 0.0
03/02:00am 17.2 13.5 12.7 75 2.5 SSE 24 28 13 15 1016.9 - 0.0
03/01:30am 17.2 12.7 12.5 74 2.6 S 28 32 15 17 1017.0 - 0.0
03/01:00am 17.3 13.0 13.2 77 2.3 S 28 32 15 17 1017.0 - 0.0
03/12:30am 17.4 12.9 13.7 79 2.1 S 30 35 16 19 1016.9 - 0.0
03/12:00am 17.6 13.5 13.9 79 2.1 S 28 33 15 18 1017.5 1017.4 0.0
 
Date/Time
CDT
Temp
°C
App
Temp
°C
Dew
Point
Rel
Hum
%
Delta-T
°C
Wind Press
QNH
hPa
Press
MSL
hPa
Rain
since 9 am
mm
Dir
 
Spd
km/h
Gust
km/h
Spd
kts
Gust
kts
02/11:30pm 17.4 13.3 13.9 80 2.0 S 28 32 15 17 1017.2 - 0.0
02/11:00pm 17.6 13.7 14.3 81 1.9 S 28 32 15 17 1017.0 - 0.0
02/10:30pm 17.8 14.5 14.1 79 2.1 S 24 28 13 15 1017.0 - 0.0
02/10:00pm 18.0 15.2 14.3 79 2.1 S 22 28 12 15 1016.8 - 0.0
02/09:30pm 18.3 15.1 14.2 77 2.4 S 24 28 13 15 1016.8 - 0.0
02/09:00pm 19.7 16.4 15.1 75 2.7 S 26 33 14 18 1016.0 1015.9 0.0
02/08:30pm 19.7 15.8 13.4 67 3.6 SSW 26 30 14 16 1015.5 - 0.0
02/08:00pm 19.8 15.4 12.8 64 3.9 SSW 28 32 15 17 1015.0 - 0.0
02/07:30pm 20.0 16.5 14.4 70 3.3 SSW 26 32 14 17 1014.6 - 0.0
02/07:00pm 20.6 18.1 15.2 71 3.2 S 22 26 12 14 1014.1 - 0.0
02/06:30pm 21.2 19.1 15.3 69 3.5 SSW 20 24 11 13 1014.4 - 0.0
02/06:00pm 21.9 20.3 14.0 61 4.6 S 15 19 8 10 1013.9 1013.8 0.0
02/05:30pm 22.0 19.7 14.6 63 4.4 SSW 20 24 11 13 1013.3 - 0.0
02/05:00pm 22.5 20.4 15.1 63 4.4 SSW 20 26 11 14 1013.3 - 0.0
02/04:30pm 23.3 19.6 12.6 51 6.1 SSW 24 30 13 16 1012.8 - 0.0
02/04:00pm 26.0 22.5 7.1 30 10.0 SSW 15 20 8 11 1013.2 - 0.0
02/03:30pm 26.5 23.6 4.9 25 11.0 SSE 9 11 5 6 1013.2 - 0.0
02/03:00pm 27.1 24.0 5.4 25 11.2 S 11 17 6 9 1013.4 1013.2 0.0
02/02:30pm 26.4 24.2 7.9 31 9.9 S 9 13 5 7 1013.5 - 0.0
02/02:00pm 25.6 22.7 6.3 29 10.0 ENE 11 17 6 9 1013.5 - 0.0
02/01:30pm 25.8 21.4 7.4 31 9.7 NE 20 28 11 15 1013.6 - 0.0
02/01:00pm 25.1 20.3 7.3 32 9.4 NNE 22 28 12 15 1014.0 - 0.0
02/12:30pm 24.5 19.4 7.6 34 8.9 NNE 24 32 13 17 1014.7 - 0.0
02/12:00pm 21.6 15.8 7.8 41 7.2 NNE 28 35 15 19 1014.3 1014.2 0.0
02/11:30am 21.2 15.4 8.1 43 6.8 NNE 28 35 15 19 1015.4 - 0.0
02/11:00am 21.2 15.8 9.4 47 6.3 NNE 28 37 15 20 1015.8 - 0.0
02/10:30am 18.8 13.3 9.3 54 5.0 NNE 28 35 15 19 1016.1 - 0.0
02/10:00am 17.9 14.0 9.3 57 4.5 NE 20 28 11 15 1016.7 - 0.0
02/09:30am 16.5 12.9 9.9 65 3.5 NNE 19 24 10 13 1017.0 - 0.0
02/09:06am 15.9 13.5 11.3 74 2.5 NNE 15 - 8 - - 1016.5 0.0
02/09:00am 15.8 13.0 11.4 75 2.4 NNE 17 22 9 12 1016.4 1016.3 0.0
02/08:30am 15.2 13.1 11.0 76 2.2 N 13 17 7 9 1016.4 - 0.0
02/08:00am 13.6 12.4 10.2 80 1.8 NNE 7 9 4 5 1016.8 - 0.0
02/07:30am 13.1 11.4 9.9 81 1.6 NNE 9 13 5 7 1016.5 - 0.0
02/07:00am 11.9 8.8 8.7 81 1.6 E 15 17 8 9 1015.9 - 0.0
02/06:30am 12.2 9.8 8.7 79 1.7 E 11 13 6 7 1016.2 - 0.0
02/06:00am 12.0 9.3 8.8 81 1.6 E 13 13 7 7 1015.8 1015.6 0.0
02/05:30am 12.2 9.5 8.9 80 1.6 E 13 15 7 8 1015.5 - 0.0
02/05:00am 12.7 9.7 9.2 79 1.8 E 15 17 8 9 1015.3 - 0.0
02/04:30am 13.0 9.7 9.6 80 1.7 E 17 19 9 10 1015.5 - 0.0
02/04:00am 13.4 10.5 9.5 77 2.0 E 15 17 8 9 1015.6 - 0.0
02/03:30am 15.6 13.5 11.2 75 2.4 SE 13 17 7 9 1016.3 - 0.0
02/03:00am 15.8 13.0 11.4 75 2.4 SE 17 20 9 11 1016.3 1016.2 0.0
02/02:30am 15.9 13.1 11.3 74 2.5 SE 17 20 9 11 1016.8 - 0.0
02/02:00am 16.1 13.3 11.5 74 2.5 SE 17 20 9 11 1017.3 - 0.0
02/01:30am 16.2 12.5 11.4 73 2.6 SE 22 28 12 15 1017.3 - 0.0
02/01:00am 16.2 12.8 11.4 73 2.6 SE 20 24 11 13 1017.3 - 0.0
02/12:30am 16.2 12.8 11.4 73 2.6 SSE 20 24 11 13 1017.1 - 0.0
02/12:00am 16.3 12.3 11.7 74 2.5 SE 24 32 13 17 1017.3 1017.2 0.0
 
Date/Time
CDT
Temp
°C
App
Temp
°C
Dew
Point
Rel
Hum
%
Delta-T
°C
Wind Press
QNH
hPa
Press
MSL
hPa
Rain
since 9 am
mm
Dir
 
Spd
km/h
Gust
km/h
Spd
kts
Gust
kts
01/11:30pm 16.5 12.6 12.1 75 2.4 SSE 24 32 13 17 1017.9 - 0.0
01/11:00pm 16.6 11.9 11.9 74 2.6 SSE 28 33 15 18 1018.0 - 0.0
01/10:30pm 16.6 11.1 11.7 73 2.7 SSE 32 35 17 19 1018.0 - 0.0
01/10:00pm 16.9 11.3 12.2 74 2.6 S 33 39 18 21 1018.3 - 0.0
01/09:30pm 16.8 11.3 11.9 73 2.7 S 32 39 17 21 1018.3 - 0.0
01/09:00pm 16.9 11.4 12.0 73 2.7 S 32 37 17 20 1018.0 1017.9 0.0
01/08:30pm 17.1 12.2 12.6 75 2.5 S 30 35 16 19 1017.5 - 0.0
01/08:00pm 17.0 11.6 12.1 73 2.7 SSE 32 35 17 19 1017.1 - 0.0
01/07:30pm 17.4 12.0 12.3 72 2.8 S 32 37 17 20 1017.0 - 0.0
01/07:00pm 17.8 12.4 12.3 70 3.0 S 32 37 17 20 1017.0 - 0.0
01/06:30pm 18.1 12.0 11.9 67 3.4 S 35 41 19 22 1016.6 - 0.0
01/06:00pm 18.3 12.5 11.4 64 3.8 S 33 41 18 22 1017.0 1016.9 0.0
01/05:30pm 18.9 13.3 12.2 65 3.7 S 33 41 18 22 1016.8 - 0.0
01/05:00pm 20.0 14.8 13.5 66 3.7 S 33 41 18 22 1016.7 - 0.0
01/04:30pm 19.4 13.3 11.9 62 4.2 S 35 39 19 21 1016.5 - 0.0
01/04:00pm 19.8 14.1 11.8 60 4.4 S 33 39 18 21 1016.8 - 0.0
01/03:30pm 20.2 14.9 12.4 61 4.4 S 32 37 17 20 1017.0 - 0.0
01/03:00pm 20.4 15.1 12.4 60 4.5 S 32 37 17 20 1017.2 1017.2 0.0
01/02:30pm 20.1 14.5 12.1 60 4.5 S 33 41 18 22 1017.2 - 0.0
01/02:00pm 20.2 14.5 11.7 58 4.7 S 33 41 18 22 1017.3 - 0.0
01/01:30pm 19.7 13.8 11.2 58 4.7 SSE 33 37 18 20 1017.5 - 0.0
01/01:00pm 19.3 14.2 11.8 62 4.1 S 30 37 16 20 1017.8 - 0.0
01/12:30pm 20.4 14.9 11.9 58 4.7 SSE 32 39 17 21 1017.8 - 0.0
01/12:00pm 19.3 13.0 12.3 64 3.9 SSE 37 43 20 23 1017.6 1017.4 0.0
01/11:30am 19.0 13.5 12.0 64 3.9 SSE 32 37 17 20 1017.5 - 0.0
01/11:00am 19.8 14.5 11.3 58 4.7 S 30 35 16 19 1017.3 - 0.0
01/10:30am 20.1 14.8 11.3 57 4.8 S 30 35 16 19 1017.3 - 0.0
01/10:00am 19.5 13.8 11.3 59 4.5 S 32 39 17 21 1016.7 - 0.0
01/09:30am 19.2 13.3 11.3 60 4.3 S 33 41 18 22 1016.4 - 0.0

Other Formats:

Comma delimited format used in spreadsheet applications
http://www.bom.gov.au/fwo/IDS60801/IDS60801.94677.axf

JavaScript Object Notation format (JSON) in row-major order
http://www.bom.gov.au/fwo/IDS60801/IDS60801.94677.json